Terminal Aerodrome Forecast
Issued by NWS

Home | Current Version | Previous Version | Text Only | Print | Product List | Glossary On
Versions: 1 2 3 4 5 6 7 8 9 10 11 12 13 14 15 16 17
533
FTUS46 KLOX 251743
TAFPMD
TAF
KPMD 251743Z 2518/2618 VRB05KT P6SM SKC
     FM252000 24008KT P6SM BKN200
     FM252300 24015KT P6SM BKN200
     FM260300 24010KT P6SM SCT060 BKN120
     FM261200 25010KT P6SM -SHRA SCT015 OVC040=

USA.gov is the U.S. government's official web portal to all federal, state and local government web resources and services.